sensor_id;sensor_type;location;lat;lon;timestamp;pressure;altitude;pressure_sealevel;temperature;humidity
37238;BME280;23129;49.662;8.448;2023-07-29T00:00:24;100131.97;;;18.56;100.00
37238;BME280;23129;49.662;8.448;2023-07-29T00:02:53;100125.81;;;18.56;100.00
37238;BME280;23129;49.662;8.448;2023-07-29T00:05:22;100124.97;;;18.55;100.00
37238;BME280;23129;49.662;8.448;2023-07-29T00:07:51;100129.44;;;18.55;100.00
37238;BME280;23129;49.662;8.448;2023-07-29T00:10:21;100121.34;;;18.56;100.00
37238;BME280;23129;49.662;8.448;2023-07-29T00:12:49;100113.38;;;18.56;100.00
37238;BME280;23129;49.662;8.448;2023-07-29T00:15:18;100110.72;;;18.56;100.00
37238;BME280;23129;49.662;8.448;2023-07-29T00:17:47;100120.38;;;18.57;100.00
37238;BME280;23129;49.662;8.448;2023-07-29T00:20:15;100120.19;;;18.60;100.00
37238;BME280;23129;49.662;8.448;2023-07-29T00:22:44;100109.34;;;18.63;100.00
37238;BME280;23129;49.662;8.448;2023-07-29T00:25:12;100113.72;;;18.64;100.00
37238;BME280;23129;49.662;8.448;2023-07-29T00:27:42;100103.75;;;18.68;100.00
37238;BME280;23129;49.662;8.448;2023-07-29T00:30:11;100103.63;;;18.69;100.00
37238;BME280;23129;49.662;8.448;2023-07-29T00:32:40;100105.22;;;18.72;100.00
37238;BME280;23129;49.662;8.448;2023-07-29T00:35:09;100102.56;;;18.72;100.00
37238;BME280;23129;49.662;8.448;2023-07-29T00:37:38;100096.34;;;18.73;100.00
37238;BME280;23129;49.662;8.448;2023-07-29T00:40:14;100095.47;;;18.73;100.00
37238;BME280;23129;49.662;8.448;2023-07-29T00:42:45;100086.56;;;18.74;100.00
37238;BME280;23129;49.662;8.448;2023-07-29T00:45:14;100088.44;;;18.71;100.00
37238;BME280;23129;49.662;8.448;2023-07-29T00:47:43;100087.59;;;18.71;100.00
37238;BME280;23129;49.662;8.448;2023-07-29T00:50:12;100085.03;;;18.69;100.00
37238;BME280;23129;49.662;8.448;2023-07-29T00:52:41;100086.00;;;18.68;100.00
37238;BME280;23129;49.662;8.448;2023-07-29T00:55:10;100083.47;;;18.67;100.00
37238;BME280;23129;49.662;8.448;2023-07-29T00:57:38;100087.16;;;18.64;100.00
37238;BME280;23129;49.662;8.448;2023-07-29T01:00:10;100079.19;;;18.64;100.00
37238;BME280;23129;49.662;8.448;2023-07-29T01:02:39;100076.53;;;18.64;100.00
37238;BME280;23129;49.662;8.448;2023-07-29T01:05:08;100071.22;;;18.64;100.00
37238;BME280;23129;49.662;8.448;2023-07-29T01:07:39;100075.69;;;18.64;100.00
37238;BME280;23129;49.662;8.448;2023-07-29T01:10:19;100074.81;;;18.63;100.00
37238;BME280;23129;49.662;8.448;2023-07-29T01:12:56;100081.84;;;18.64;100.00
37238;BME280;23129;49.662;8.448;2023-07-29T01:15:33;100080.88;;;18.65;100.00
37238;BME280;23129;49.662;8.448;2023-07-29T01:18:06;100071.75;;;18.69;100.00
37238;BME280;23129;49.662;8.448;2023-07-29T01:20:38;100069.84;;;18.71;100.00
37238;BME280;23129;49.662;8.448;2023-07-29T01:23:08;100072.31;;;18.75;100.00
37238;BME280;23129;49.662;8.448;2023-07-29T01:25:38;100078.28;;;18.78;100.00
37238;BME280;23129;49.662;8.448;2023-07-29T01:28:07;100074.47;;;18.82;100.00
37238;BME280;23129;49.662;8.448;2023-07-29T01:30:39;100069.03;;;18.84;100.00
37238;BME280;23129;49.662;8.448;2023-07-29T01:33:14;100061.81;;;18.86;100.00
37238;BME280;23129;49.662;8.448;2023-07-29T01:35:48;100058.19;;;18.87;100.00
37238;BME280;23129;49.662;8.448;2023-07-29T01:38:20;100044.69;;;18.90;100.00
37238;BME280;23129;49.662;8.448;2023-07-29T01:40:54;100047.56;;;18.87;100.00
37238;BME280;23129;49.662;8.448;2023-07-29T01:43:23;100064.78;;;18.81;100.00
37238;BME280;23129;49.662;8.448;2023-07-29T01:45:53;100054.47;;;18.77;100.00
37238;BME280;23129;49.662;8.448;2023-07-29T01:48:23;100061.69;;;18.75;100.00
37238;BME280;23129;49.662;8.448;2023-07-29T01:50:51;100052.97;;;18.73;100.00
37238;BME280;23129;49.662;8.448;2023-07-29T01:53:20;100045.94;;;18.71;100.00
37238;BME280;23129;49.662;8.448;2023-07-29T01:55:48;100039.69;;;18.73;100.00
37238;BME280;23129;49.662;8.448;2023-07-29T01:58:19;100047.66;;;18.73;100.00
37238;BME280;23129;49.662;8.448;2023-07-29T02:00:48;100047.66;;;18.73;100.00
37238;BME280;23129;49.662;8.448;2023-07-29T02:03:17;100045.00;;;18.73;100.00
37238;BME280;23129;49.662;8.448;2023-07-29T02:05:45;100043.22;;;18.73;100.00
37238;BME280;23129;49.662;8.448;2023-07-29T02:08:14;100045.94;;;18.71;100.00
37238;BME280;23129;49.662;8.448;2023-07-29T02:10:43;100030.97;;;18.70;100.00
37238;BME280;23129;49.662;8.448;2023-07-29T02:13:12;100030.19;;;18.68;100.00
37238;BME280;23129;49.662;8.448;2023-07-29T02:15:43;100029.34;;;18.68;100.00
37238;BME280;23129;49.662;8.448;2023-07-29T02:18:11;100036.47;;;18.67;100.00
37238;BME280;23129;49.662;8.448;2023-07-29T02:20:40;100033.81;;;18.67;100.00
37238;BME280;23129;49.662;8.448;2023-07-29T02:23:16;100044.44;;;18.67;100.00
37238;BME280;23129;49.662;8.448;2023-07-29T02:25:45;100046.13;;;18.68;100.00
37238;BME280;23129;49.662;8.448;2023-07-29T02:28:14;100039.13;;;18.67;100.00
37238;BME280;23129;49.662;8.448;2023-07-29T02:30:44;100036.47;;;18.67;100.00
37238;BME280;23129;49.662;8.448;2023-07-29T02:33:13;100035.50;;;18.68;100.00
37238;BME280;23129;49.662;8.448;2023-07-29T02:35:42;100031.03;;;18.69;100.00
37238;BME280;23129;49.662;8.448;2023-07-29T02:38:11;100036.38;;;18.69;100.00
37238;BME280;23129;49.662;8.448;2023-07-29T02:40:39;100023.91;;;18.69;100.00
37238;BME280;23129;49.662;8.448;2023-07-29T02:43:08;100039.78;;;18.71;100.00
37238;BME280;23129;49.662;8.448;2023-07-29T02:45:37;100028.19;;;18.72;100.00
37238;BME280;23129;49.662;8.448;2023-07-29T02:48:07;100033.31;;;18.75;100.00
37238;BME280;23129;49.662;8.448;2023-07-29T02:50:36;100020.91;;;18.76;100.00
37238;BME280;23129;49.662;8.448;2023-07-29T02:53:05;100023.44;;;18.77;100.00
37238;BME280;23129;49.662;8.448;2023-07-29T02:55:34;100029.81;;;18.75;100.00
37238;BME280;23129;49.662;8.448;2023-07-29T02:58:02;100028.13;;;18.74;100.00
37238;BME280;23129;49.662;8.448;2023-07-29T03:00:32;100017.56;;;18.72;100.00
37238;BME280;23129;49.662;8.448;2023-07-29T03:03:01;100012.34;;;18.70;100.00
37238;BME280;23129;49.662;8.448;2023-07-29T03:05:31;100013.28;;;18.69;100.00
37238;BME280;23129;49.662;8.448;2023-07-29T03:07:59;100009.91;;;18.67;100.00
37238;BME280;23129;49.662;8.448;2023-07-29T03:10:28;99992.38;;;18.65;100.00
37238;BME280;23129;49.662;8.448;2023-07-29T03:12:57;99987.16;;;18.63;100.00
37238;BME280;23129;49.662;8.448;2023-07-29T03:15:25;99993.44;;;18.62;100.00
37238;BME280;23129;49.662;8.448;2023-07-29T03:17:54;99994.50;;;18.60;100.00
37238;BME280;23129;49.662;8.448;2023-07-29T03:20:23;99993.63;;;18.59;100.00
37238;BME280;23129;49.662;8.448;2023-07-29T03:22:53;99983.00;;;18.59;100.00
37238;BME280;23129;49.662;8.448;2023-07-29T03:25:21;99983.97;;;18.58;100.00
37238;BME280;23129;49.662;8.448;2023-07-29T03:27:50;99989.28;;;18.58;100.00
37238;BME280;23129;49.662;8.448;2023-07-29T03:30:20;99988.31;;;18.59;100.00
37238;BME280;23129;49.662;8.448;2023-07-29T03:32:50;99983.00;;;18.59;100.00
37238;BME280;23129;49.662;8.448;2023-07-29T03:35:19;100002.56;;;18.58;100.00
37238;BME280;23129;49.662;8.448;2023-07-29T03:37:47;100004.25;;;18.59;100.00
37238;BME280;23129;49.662;8.448;2023-07-29T03:40:19;99991.94;;;18.58;100.00
37238;BME280;23129;49.662;8.448;2023-07-29T03:42:48;99986.63;;;18.58;100.00
37238;BME280;23129;49.662;8.448;2023-07-29T03:45:16;99979.59;;;18.57;100.00
37238;BME280;23129;49.662;8.448;2023-07-29T03:47:45;99984.91;;;18.57;100.00
37238;BME280;23129;49.662;8.448;2023-07-29T03:50:14;99986.63;;;18.58;100.00
37238;BME280;23129;49.662;8.448;2023-07-29T03:52:43;99983.00;;;18.59;100.00
37238;BME280;23129;49.662;8.448;2023-07-29T03:55:12;99989.16;;;18.60;100.00
37238;BME280;23129;49.662;8.448;2023-07-29T03:57:41;99983.78;;;18.61;100.00
37238;BME280;23129;49.662;8.448;2023-07-29T04:00:11;99988.13;;;18.62;100.00
37238;BME280;23129;49.662;8.448;2023-07-29T04:02:42;99988.03;;;18.64;100.00
37238;BME280;23129;49.662;8.448;2023-07-29T04:05:13;100003.00;;;18.65;100.00
37238;BME280;23129;49.662;8.448;2023-07-29T04:07:41;99997.69;;;18.65;100.00
37238;BME280;23129;49.662;8.448;2023-07-29T04:10:10;100002.03;;;18.66;100.00
37238;BME280;23129;49.662;8.448;2023-07-29T04:12:40;99987.91;;;18.65;100.00
37238;BME280;23129;49.662;8.448;2023-07-29T04:15:09;99979.94;;;18.65;100.00
37238;BME280;23129;49.662;8.448;2023-07-29T04:17:38;99983.56;;;18.64;100.00
37238;BME280;23129;49.662;8.448;2023-07-29T04:20:07;99982.59;;;18.65;100.00
37238;BME280;23129;49.662;8.448;2023-07-29T04:22:36;99980.91;;;18.64;100.00
37238;BME280;23129;49.662;8.448;2023-07-29T04:25:06;99975.59;;;18.64;100.00
37238;BME280;23129;49.662;8.448;2023-07-29T04:27:34;99964.97;;;18.64;100.00
37238;BME280;23129;49.662;8.448;2023-07-29T04:30:06;99971.97;;;18.65;100.00
37238;BME280;23129;49.662;8.448;2023-07-29T04:32:34;99977.28;;;18.65;100.00
37238;BME280;23129;49.662;8.448;2023-07-29T04:35:07;99978.13;;;18.66;100.00
37238;BME280;23129;49.662;8.448;2023-07-29T04:37:37;99970.06;;;18.67;100.00
37238;BME280;23129;49.662;8.448;2023-07-29T04:40:07;99968.34;;;18.66;100.00
37238;BME280;23129;49.662;8.448;2023-07-29T04:42:36;99971.75;;;18.68;100.00
37238;BME280;23129;49.662;8.448;2023-07-29T04:45:07;99978.75;;;18.69;100.00
37238;BME280;23129;49.662;8.448;2023-07-29T04:47:36;99972.38;;;18.72;100.00
37238;BME280;23129;49.662;8.448;2023-07-29T04:50:06;99974.78;;;18.77;100.00
37238;BME280;23129;49.662;8.448;2023-07-29T04:52:34;99970.94;;;18.81;100.00
37238;BME280;23129;49.662;8.448;2023-07-29T04:55:04;99976.66;;;18.87;100.00
37238;BME280;23129;49.662;8.448;2023-07-29T04:57:32;99980.69;;;18.93;100.00
37238;BME280;23129;49.662;8.448;2023-07-29T05:00:02;99987.53;;;18.97;100.00
37238;BME280;23129;49.662;8.448;2023-07-29T05:02:32;99989.00;;;19.01;100.00
37238;BME280;23129;49.662;8.448;2023-07-29T05:05:01;99991.44;;;19.04;100.00
37238;BME280;23129;49.662;8.448;2023-07-29T05:07:29;99982.50;;;19.05;100.00
37238;BME280;23129;49.662;8.448;2023-07-29T05:09:58;99991.00;;;19.10;100.00
37238;BME280;23129;49.662;8.448;2023-07-29T05:12:27;99999.81;;;19.11;100.00
37238;BME280;23129;49.662;8.448;2023-07-29T05:14:56;100016.63;;;19.11;100.00
37238;BME280;23129;49.662;8.448;2023-07-29T05:17:25;100023.75;;;19.11;100.00
37238;BME280;23129;49.662;8.448;2023-07-29T05:19:55;100014.94;;;19.10;100.00
37238;BME280;23129;49.662;8.448;2023-07-29T05:22:24;100008.63;;;19.11;100.00
37238;BME280;23129;49.662;8.448;2023-07-29T05:24:53;100004.06;;;19.13;100.00
37238;BME280;23129;49.662;8.448;2023-07-29T05:27:21;100001.81;;;19.20;100.00
37238;BME280;23129;49.662;8.448;2023-07-29T05:29:50;100004.25;;;19.23;100.00
37238;BME280;23129;49.662;8.448;2023-07-29T05:32:19;99996.94;;;19.27;100.00
37238;BME280;23129;49.662;8.448;2023-07-29T05:34:48;99995.13;;;19.27;100.00
37238;BME280;23129;49.662;8.448;2023-07-29T05:37:18;99995.00;;;19.29;100.00
37238;BME280;23129;49.662;8.448;2023-07-29T05:39:46;99993.84;;;19.33;100.00
37238;BME280;23129;49.662;8.448;2023-07-29T05:42:15;99996.16;;;19.37;100.00
37238;BME280;23129;49.662;8.448;2023-07-29T05:44:44;99993.41;;;19.39;100.00
37238;BME280;23129;49.662;8.448;2023-07-29T05:47:12;100009.16;;;19.42;100.00
37238;BME280;23129;49.662;8.448;2023-07-29T05:49:41;100001.03;;;19.44;100.00
37238;BME280;23129;49.662;8.448;2023-07-29T05:52:10;100008.09;;;19.45;100.00
37238;BME280;23129;49.662;8.448;2023-07-29T05:54:40;100010.63;;;19.46;100.00
37238;BME280;23129;49.662;8.448;2023-07-29T05:57:10;100003.38;;;19.48;100.00
37238;BME280;23129;49.662;8.448;2023-07-29T05:59:39;100001.44;;;19.50;100.00
37238;BME280;23129;49.662;8.448;2023-07-29T06:02:08;100008.25;;;19.54;100.00
37238;BME280;23129;49.662;8.448;2023-07-29T06:04:36;100001.03;;;19.56;100.00
37238;BME280;23129;49.662;8.448;2023-07-29T06:07:05;100009.50;;;19.61;100.00
37238;BME280;23129;49.662;8.448;2023-07-29T06:09:35;99998.66;;;19.65;100.00
37238;BME280;23129;49.662;8.448;2023-07-29T06:12:06;99997.38;;;19.70;100.00
37238;BME280;23129;49.662;8.448;2023-07-29T06:14:34;100006.50;;;19.79;100.00
37238;BME280;23129;49.662;8.448;2023-07-29T06:17:03;100003.50;;;19.83;100.00
37238;BME280;23129;49.662;8.448;2023-07-29T06:19:34;100003.06;;;19.90;100.00
37238;BME280;23129;49.662;8.448;2023-07-29T06:22:03;100006.22;;;19.95;100.00
37238;BME280;23129;49.662;8.448;2023-07-29T06:24:33;100001.31;;;20.01;100.00
37238;BME280;23129;49.662;8.448;2023-07-29T06:27:01;100004.44;;;20.06;100.00
37238;BME280;23129;49.662;8.448;2023-07-29T06:29:31;100003.16;;;20.12;100.00
37238;BME280;23129;49.662;8.448;2023-07-29T06:32:00;100009.31;;;20.13;100.00
37238;BME280;23129;49.662;8.448;2023-07-29T06:34:29;99996.97;;;20.12;100.00
37238;BME280;23129;49.662;8.448;2023-07-29T06:36:57;99997.22;;;20.09;100.00
37238;BME280;23129;49.662;8.448;2023-07-29T06:39:26;99991.88;;;20.09;100.00
37238;BME280;23129;49.662;8.448;2023-07-29T06:41:55;99992.81;;;19.96;100.00
37238;BME280;23129;49.662;8.448;2023-07-29T06:44:24;100006.28;;;19.82;100.00
37238;BME280;23129;49.662;8.448;2023-07-29T06:46:54;100018.44;;;19.73;100.00
37238;BME280;23129;49.662;8.448;2023-07-29T06:49:22;100011.22;;;19.63;100.00
37238;BME280;23129;49.662;8.448;2023-07-29T06:51:51;100014.19;;;19.58;100.00
37238;BME280;23129;49.662;8.448;2023-07-29T06:54:24;100027.63;;;19.56;100.00
37238;BME280;23129;49.662;8.448;2023-07-29T06:56:53;100039.75;;;19.60;100.00
37238;BME280;23129;49.662;8.448;2023-07-29T06:59:22;100051.88;;;19.65;100.00
37238;BME280;23129;49.662;8.448;2023-07-29T07:01:53;100046.13;;;19.71;100.00
37238;BME280;23129;49.662;8.448;2023-07-29T07:04:22;100035.03;;;19.77;100.00
37238;BME280;23129;49.662;8.448;2023-07-29T07:06:50;100034.56;;;19.83;100.00
37238;BME280;23129;49.662;8.448;2023-07-29T07:09:19;100032.00;;;19.94;100.00
37238;BME280;23129;49.662;8.448;2023-07-29T07:11:48;100051.16;;;19.99;100.00
37238;BME280;23129;49.662;8.448;2023-07-29T07:14:16;100057.38;;;19.87;100.00
37238;BME280;23129;49.662;8.448;2023-07-29T07:16:45;100060.69;;;19.78;100.00
37238;BME280;23129;49.662;8.448;2023-07-29T07:19:15;100052.28;;;19.71;100.00
37238;BME280;23129;49.662;8.448;2023-07-29T07:21:44;100022.31;;;19.69;100.00
37238;BME280;23129;49.662;8.448;2023-07-29T07:24:13;100030.59;;;19.65;100.00
37238;BME280;23129;49.662;8.448;2023-07-29T07:26:41;100047.09;;;19.57;100.00
37238;BME280;23129;49.662;8.448;2023-07-29T07:29:10;100047.63;;;19.49;100.00
37238;BME280;23129;49.662;8.448;2023-07-29T07:31:38;100042.31;;;19.49;100.00
37238;BME280;23129;49.662;8.448;2023-07-29T07:34:07;100040.28;;;19.53;100.00
37238;BME280;23129;49.662;8.448;2023-07-29T07:36:37;100040.19;;;19.54;100.00
37238;BME280;23129;49.662;8.448;2023-07-29T07:39:08;100049.75;;;19.57;100.00
37238;BME280;23129;49.662;8.448;2023-07-29T07:41:37;100046.97;;;19.58;100.00
37238;BME280;23129;49.662;8.448;2023-07-29T07:44:08;100053.13;;;19.59;100.00
37238;BME280;23129;49.662;8.448;2023-07-29T07:46:38;100052.28;;;19.58;100.00
37238;BME280;23129;49.662;8.448;2023-07-29T07:49:07;100050.59;;;19.57;100.00
37238;BME280;23129;49.662;8.448;2023-07-29T07:51:37;100060.50;;;19.55;100.00
37238;BME280;23129;49.662;8.448;2023-07-29T07:54:06;100064.22;;;19.53;100.00
37238;BME280;23129;49.662;8.448;2023-07-29T07:56:34;100066.59;;;19.32;100.00
37238;BME280;23129;49.662;8.448;2023-07-29T07:59:03;100063.63;;;18.98;100.00
37238;BME280;23129;49.662;8.448;2023-07-29T08:01:35;100066.25;;;18.73;100.00
37238;BME280;23129;49.662;8.448;2023-07-29T08:04:04;100061.22;;;18.55;100.00
37238;BME280;23129;49.662;8.448;2023-07-29T08:06:33;100061.84;;;18.46;100.00
37238;BME280;23129;49.662;8.448;2023-07-29T08:09:04;100061.16;;;18.42;100.00
37238;BME280;23129;49.662;8.448;2023-07-29T08:11:33;100072.88;;;18.40;100.00
37238;BME280;23129;49.662;8.448;2023-07-29T08:14:02;100058.22;;;18.47;100.00
37238;BME280;23129;49.662;8.448;2023-07-29T08:16:30;100068.03;;;18.59;100.00
37238;BME280;23129;49.662;8.448;2023-07-29T08:18:59;100060.41;;;18.67;100.00
37238;BME280;23129;49.662;8.448;2023-07-29T08:21:27;100068.09;;;18.85;100.00
37238;BME280;23129;49.662;8.448;2023-07-29T08:23:56;100065.84;;;19.17;100.00
37238;BME280;23129;49.662;8.448;2023-07-29T08:26:26;100060.63;;;19.67;100.00
37238;BME280;23129;49.662;8.448;2023-07-29T08:28:54;100058.59;;;19.94;100.00
37238;BME280;23129;49.662;8.448;2023-07-29T08:31:23;100057.91;;;20.51;100.00
37238;BME280;23129;49.662;8.448;2023-07-29T08:33:51;100059.16;;;21.05;100.00
37238;BME280;23129;49.662;8.448;2023-07-29T08:36:20;100057.47;;;21.72;100.00
37238;BME280;23129;49.662;8.448;2023-07-29T08:38:48;100061.13;;;22.25;100.00
37238;BME280;23129;49.662;8.448;2023-07-29T08:41:20;100059.66;;;22.65;100.00
37238;BME280;23129;49.662;8.448;2023-07-29T08:43:59;100046.19;;;23.18;100.00
37238;BME280;23129;49.662;8.448;2023-07-29T08:46:30;100037.00;;;23.51;100.00
37238;BME280;23129;49.662;8.448;2023-07-29T08:48:59;100039.50;;;23.74;100.00
37238;BME280;23129;49.662;8.448;2023-07-29T08:51:29;100034.06;;;23.54;100.00
37238;BME280;23129;49.662;8.448;2023-07-29T08:53:59;100050.06;;;23.75;100.00
37238;BME280;23129;49.662;8.448;2023-07-29T08:56:28;100054.09;;;24.00;100.00
37238;BME280;23129;49.662;8.448;2023-07-29T08:58:59;100064.47;;;23.84;100.00
37238;BME280;23129;49.662;8.448;2023-07-29T09:01:29;100080.19;;;23.67;100.00
37238;BME280;23129;49.662;8.448;2023-07-29T09:03:58;100080.97;;;23.49;100.00
37238;BME280;23129;49.662;8.448;2023-07-29T09:06:27;100085.44;;;23.38;100.00
37238;BME280;23129;49.662;8.448;2023-07-29T09:08:55;100081.25;;;23.45;100.00
37238;BME280;23129;49.662;8.448;2023-07-29T09:11:25;100083.72;;;23.28;100.00
37238;BME280;23129;49.662;8.448;2023-07-29T09:13:53;100075.38;;;23.00;100.00
37238;BME280;23129;49.662;8.448;2023-07-29T09:16:24;100083.72;;;22.86;100.00
37238;BME280;23129;49.662;8.448;2023-07-29T09:18:53;100082.56;;;22.88;100.00
37238;BME280;23129;49.662;8.448;2023-07-29T09:21:24;100080.03;;;22.98;100.00
37238;BME280;23129;49.662;8.448;2023-07-29T09:23:54;100072.56;;;23.01;100.00
37238;BME280;23129;49.662;8.448;2023-07-29T09:26:23;100067.84;;;22.94;100.00
37238;BME280;23129;49.662;8.448;2023-07-29T09:28:52;100069.09;;;22.90;100.00
37238;BME280;23129;49.662;8.448;2023-07-29T09:31:24;100064.59;;;23.11;100.00
37238;BME280;23129;49.662;8.448;2023-07-29T09:33:57;100060.47;;;23.68;100.00
37238;BME280;23129;49.662;8.448;2023-07-29T09:36:26;100056.25;;;24.45;100.00
37238;BME280;23129;49.662;8.448;2023-07-29T09:38:56;100060.44;;;24.96;100.00
37238;BME280;23129;49.662;8.448;2023-07-29T09:41:26;100046.72;;;24.99;100.00
37238;BME280;23129;49.662;8.448;2023-07-29T09:43:58;100044.63;;;25.40;100.00
37238;BME280;23129;49.662;8.448;2023-07-29T09:46:34;100039.84;;;25.89;100.00
37238;BME280;23129;49.662;8.448;2023-07-29T09:49:05;100037.44;;;26.50;100.00
37238;BME280;23129;49.662;8.448;2023-07-29T09:51:38;100021.97;;;26.96;100.00
37238;BME280;23129;49.662;8.448;2023-07-29T09:54:07;100013.28;;;27.36;100.00
37238;BME280;23129;49.662;8.448;2023-07-29T09:56:41;100017.22;;;27.58;100.00
37238;BME280;23129;49.662;8.448;2023-07-29T09:59:12;100009.78;;;27.52;100.00
37238;BME280;23129;49.662;8.448;2023-07-29T10:01:42;99998.81;;;27.80;100.00
37238;BME280;23129;49.662;8.448;2023-07-29T10:04:11;99999.84;;;28.11;100.00
37238;BME280;23129;49.662;8.448;2023-07-29T10:06:42;100012.03;;;28.56;100.00
37238;BME280;23129;49.662;8.448;2023-07-29T10:09:12;100002.22;;;28.80;100.00
37238;BME280;23129;49.662;8.448;2023-07-29T10:11:41;100004.03;;;29.04;100.00
37238;BME280;23129;49.662;8.448;2023-07-29T10:14:10;100016.84;;;29.18;100.00
37238;BME280;23129;49.662;8.448;2023-07-29T10:16:41;100013.53;;;29.39;100.00
37238;BME280;23129;49.662;8.448;2023-07-29T10:19:12;100017.19;;;29.07;100.00
37238;BME280;23129;49.662;8.448;2023-07-29T10:21:44;100018.06;;;28.17;100.00
37238;BME280;23129;49.662;8.448;2023-07-29T10:24:19;100025.97;;;27.52;100.00
37238;BME280;23129;49.662;8.448;2023-07-29T10:26:58;100028.00;;;27.58;100.00
37238;BME280;23129;49.662;8.448;2023-07-29T10:29:31;100034.69;;;27.46;100.00
37238;BME280;23129;49.662;8.448;2023-07-29T10:32:03;100016.97;;;27.77;100.00
37238;BME280;23129;49.662;8.448;2023-07-29T10:34:33;99994.78;;;28.08;100.00
37238;BME280;23129;49.662;8.448;2023-07-29T10:37:03;100006.94;;;28.20;100.00
37238;BME280;23129;49.662;8.448;2023-07-29T10:39:38;99993.50;;;28.45;100.00
37238;BME280;23129;49.662;8.448;2023-07-29T10:42:07;99993.66;;;28.52;100.00
37238;BME280;23129;49.662;8.448;2023-07-29T10:44:49;100008.34;;;28.57;100.00
37238;BME280;23129;49.662;8.448;2023-07-29T10:47:22;99997.53;;;28.57;100.00
37238;BME280;23129;49.662;8.448;2023-07-29T10:49:53;99993.16;;;28.48;100.00
37238;BME280;23129;49.662;8.448;2023-07-29T10:52:40;99995.47;;;28.76;100.00
37238;BME280;23129;49.662;8.448;2023-07-29T10:55:26;99985.88;;;28.73;100.00
37238;BME280;23129;49.662;8.448;2023-07-29T10:58:12;99999.22;;;28.58;100.00
37238;BME280;23129;49.662;8.448;2023-07-29T11:00:42;99999.13;;;29.07;100.00
37238;BME280;23129;49.662;8.448;2023-07-29T11:03:13;99987.47;;;29.54;100.00
37238;BME280;23129;49.662;8.448;2023-07-29T11:05:49;99982.47;;;29.97;100.00
37238;BME280;23129;49.662;8.448;2023-07-29T11:08:20;99981.00;;;30.41;100.00
37238;BME280;23129;49.662;8.448;2023-07-29T11:11:03;99971.97;;;30.48;100.00
37238;BME280;23129;49.662;8.448;2023-07-29T11:13:33;99982.16;;;30.00;100.00
37238;BME280;23129;49.662;8.448;2023-07-29T11:16:02;99978.41;;;29.39;100.00
37238;BME280;23129;49.662;8.448;2023-07-29T11:18:34;99969.69;;;29.29;100.00
37238;BME280;23129;49.662;8.448;2023-07-29T11:21:04;99973.09;;;29.23;100.00
37238;BME280;23129;49.662;8.448;2023-07-29T11:23:34;99973.47;;;28.95;100.00
37238;BME280;23129;49.662;8.448;2023-07-29T11:26:04;99978.19;;;29.18;100.00
37238;BME280;23129;49.662;8.448;2023-07-29T11:28:38;99965.34;;;29.20;100.00
37238;BME280;23129;49.662;8.448;2023-07-29T11:31:07;99962.19;;;29.39;100.00
37238;BME280;23129;49.662;8.448;2023-07-29T11:33:39;99961.00;;;28.94;100.00
37238;BME280;23129;49.662;8.448;2023-07-29T11:36:18;99951.63;;;28.65;100.00
37238;BME280;23129;49.662;8.448;2023-07-29T11:38:47;99957.31;;;28.87;100.00
37238;BME280;23129;49.662;8.448;2023-07-29T11:41:20;99966.19;;;29.20;100.00
37238;BME280;23129;49.662;8.448;2023-07-29T11:43:49;99953.53;;;29.12;100.00
37238;BME280;23129;49.662;8.448;2023-07-29T11:46:22;99956.13;;;29.37;100.00
37238;BME280;23129;49.662;8.448;2023-07-29T11:48:54;99961.16;;;30.02;100.00
37238;BME280;23129;49.662;8.448;2023-07-29T11:51:23;99963.81;;;30.34;100.00
37238;BME280;23129;49.662;8.448;2023-07-29T11:53:53;99956.28;;;30.21;100.00
37238;BME280;23129;49.662;8.448;2023-07-29T11:56:23;99960.34;;;30.25;100.00
37238;BME280;23129;49.662;8.448;2023-07-29T11:58:51;99957.28;;;30.43;100.00
37238;BME280;23129;49.662;8.448;2023-07-29T12:01:22;99957.25;;;30.96;100.00
37238;BME280;23129;49.662;8.448;2023-07-29T12:03:52;99953.34;;;31.13;100.00
37238;BME280;23129;49.662;8.448;2023-07-29T12:06:21;99961.72;;;31.48;100.00
37238;BME280;23129;49.662;8.448;2023-07-29T12:08:51;99943.47;;;31.93;100.00
37238;BME280;23129;49.662;8.448;2023-07-29T12:11:21;99948.47;;;32.17;92.79
37238;BME280;23129;49.662;8.448;2023-07-29T12:13:49;99959.50;;;32.37;93.76
37238;BME280;23129;49.662;8.448;2023-07-29T12:16:18;99946.88;;;32.51;91.28
37238;BME280;23129;49.662;8.448;2023-07-29T12:18:46;99950.44;;;32.80;92.92
37238;BME280;23129;49.662;8.448;2023-07-29T12:21:19;99955.66;;;33.09;89.93
37238;BME280;23129;49.662;8.448;2023-07-29T12:23:47;99947.69;;;33.14;91.28
37238;BME280;23129;49.662;8.448;2023-07-29T12:26:18;99958.06;;;33.39;90.63
37238;BME280;23129;49.662;8.448;2023-07-29T12:28:47;99964.25;;;33.19;91.47
37238;BME280;23129;49.662;8.448;2023-07-29T12:31:15;99961.31;;;32.80;94.59
37238;BME280;23129;49.662;8.448;2023-07-29T12:33:44;99954.56;;;32.19;93.51
37238;BME280;23129;49.662;8.448;2023-07-29T12:36:12;99938.03;;;31.93;89.55
37238;BME280;23129;49.662;8.448;2023-07-29T12:38:45;99964.81;;;31.45;86.30
37238;BME280;23129;49.662;8.448;2023-07-29T12:41:14;99958.34;;;31.46;88.29
37238;BME280;23129;49.662;8.448;2023-07-29T12:43:42;99962.63;;;31.55;84.43
37238;BME280;23129;49.662;8.448;2023-07-29T12:46:11;99974.63;;;31.82;82.11
37238;BME280;23129;49.662;8.448;2023-07-29T12:48:39;99963.94;;;32.17;80.30
37238;BME280;23129;49.662;8.448;2023-07-29T12:51:08;99966.41;;;32.40;81.00
37238;BME280;23129;49.662;8.448;2023-07-29T12:53:36;99963.13;;;32.72;81.26
37238;BME280;23129;49.662;8.448;2023-07-29T12:56:06;99978.44;;;32.80;78.22
37238;BME280;23129;49.662;8.448;2023-07-29T12:58:35;99970.47;;;32.79;73.51